SondeTracker

Meteorological Radiosondes Database

Operations

Sounding was ended - last measurement: 2022-12-06 01:17:21z

MAP
About Radiosonde

Number: U2010173

Launch Site: Cahersiveen (IE)

Type: RS41-SG

AUX: NO

Frequency: 405.30 MHz

Max Speed: 102 km/h at 32427 m

Average Speed: 40.68 km/h

Max Altitude: 32670 m

Average Ascent Speed: 5.58 m/s

Average Descent Speed: 27.03 m/s

Status: LOST

Status Changes
Launch Site Type AUX Frequency Status Finder Landing Point Description Changes made by
MHz LOST 0, 0 AUTO STATUS: Probably lost in the water [BOT]AUTO-STATUS - 2022-12-06 02:22:26z
APRS Statistics

Received Frames: 197

First Frame [UTC]: 2022-12-05 23:26:09z

Last Frame [UTC]: 2022-12-06 01:17:21z

Receivers: EI6HKB-11

Flight Time: 01:51:12 h

Distance From First Measurement: 26.39 km

Nearest City: Bantry (IE) [80.28 km]

Nearest Hunter: Ei4jn [17.27 km]

Ground Altitude: -123 m

Distance from QTH: 0.00 km

APRS Data
Receiver Number Date/Time [UTC] φ λ Course [°] Speed [km/h] Altitude [m] Description
EI6HKB-11U20101732022-12-06 01:17:2151.7995-10.6024295561347Clb=-14.3m/s 405.30MHz Type=RS41-SG Aux[] BK=Timed(081152h) RS41Tracker 1.17
EI6HKB-11U20101732022-12-06 01:17:0151.7982-10.5987299521618Clb=-14.4m/s 405.30MHz Type=RS41-SG Aux[] BK=Timed(081152h) RS41Tracker 1.17
EI6HKB-11U20101732022-12-06 01:16:4151.7971-10.5951284411882Clb=-14.0m/s 405.30MHz Type=RS41-SG Aux[] BK=Timed(081152h) RS41Tracker 1.17
EI6HKB-11U20101732022-12-06 01:16:2151.7969-10.5918276462164Clb=-15.1m/s 405.30MHz Type=RS41-SG Aux[] BK=Timed(081243h) RS41Tracker 1.17
EI6HKB-11U20101732022-12-06 01:16:0151.7966-10.5881278502453Clb=-14.8m/s 405.30MHz Type=RS41-SG Aux[] BK=Timed(081243h) RS41Tracker 1.17
EI6HKB-11U20101732022-12-06 01:15:4151.796-10.5844281442727Clb=-13.2m/s 405.30MHz Type=RS41-SG Aux[] BK=Timed(081334h) RS41Tracker 1.17
EI6HKB-11U20101732022-12-06 01:15:2151.7958-10.581271432994Clb=-14.6m/s 405.30MHz Type=RS41-SG Aux[] BK=Timed(081334h) RS41Tracker 1.17
EI6HKB-11U20101732022-12-06 01:12:0451.7897-10.5425280635876Clb=-15.8m/s 405.30MHz Type=RS41-SG Aux[] BK=Timed(081658h) RS41Tracker 1.17
EI6HKB-11U20101732022-12-06 01:11:4451.7891-10.5378280576203Clb=-17.5m/s 405.30MHz Type=RS41-SG Aux[] BK=Timed(081658h) RS41Tracker 1.17
EI6HKB-11U20101732022-12-06 01:11:2451.7885-10.5336285526546Clb=-18.1m/s 405.30MHz Type=RS41-SG Aux[] BK=Timed(081749h) RS41Tracker 1.17
EI6HKB-11U20101732022-12-06 01:11:0451.7878-10.5295284526895Clb=-18.0m/s 405.30MHz Type=RS41-SG Aux[] BK=Timed(081749h) RS41Tracker 1.17
EI6HKB-11U20101732022-12-06 01:10:4451.7872-10.5255281527240Clb=-18.4m/s 405.30MHz Type=RS41-SG Aux[] BK=Timed(081749h) RS41Tracker 1.17
EI6HKB-11U20101732022-12-06 01:10:2451.7867-10.5217282487597Clb=-18.0m/s 405.30MHz Type=RS41-SG Aux[] BK=Timed(081840h) RS41Tracker 1.17
EI6HKB-11U20101732022-12-06 01:10:0451.7861-10.5181287467952Clb=-18.4m/s 405.30MHz Type=RS41-SG Aux[] BK=Timed(081840h) RS41Tracker 1.17
EI6HKB-11U20101732022-12-06 01:09:4451.7851-10.5143292568320Clb=-19.6m/s 405.30MHz Type=RS41-SG Aux[] BK=Timed(081931h) RS41Tracker 1.17
EI6HKB-11U20101732022-12-06 01:09:2451.7842-10.5103292548697Clb=-18.7m/s 405.30MHz Type=RS41-SG Aux[] BK=Timed(081931h) RS41Tracker 1.17
EI6HKB-11U20101732022-12-06 01:05:2251.7755-10.4929334613958Clb=-25.8m/s 405.30MHz Type=RS41-SG Aux[] BK=Timed(082437h) RS41Tracker 1.17
EI6HKB-11U20101732022-12-06 01:04:4651.7762-10.49232481114915Clb=-29.8m/s 405.30MHz Type=RS41-SG Aux[] BK=Timed(082437h) RS41Tracker 1.17
EI6HKB-11U20101732022-12-06 01:04:2651.7766-10.491248915501Clb=-30.7m/s 405.30MHz Type=RS41-SG Aux[] BK=Timed(082437h) RS41Tracker 1.17
EI6HKB-11U20101732022-12-06 01:04:0651.7769-10.492312816088Clb=-30.1m/s 405.30MHz Type=RS41-SG Aux[] BK=Timed(082437h) RS41Tracker 1.17
EI6HKB-11U20101732022-12-06 01:03:4651.7774-10.4882271916710Clb=-33.3m/s 405.30MHz Type=RS41-SG Aux[] BK=Timed(082528h) RS41Tracker 1.17
EI6HKB-11U20101732022-12-06 01:03:2651.7779-10.48722302817345Clb=-34.5m/s 405.30MHz Type=RS41-SG Aux[] BK=Timed(082528h) RS41Tracker 1.17
EI6HKB-11U20101732022-12-06 01:03:0251.779-10.48591771318158Clb=-34.8m/s 405.30MHz Type=RS41-SG Aux[] BK=Timed(082528h) RS41Tracker 1.17
EI6HKB-11U20101732022-12-06 01:02:4251.78-10.48532153718846Clb=-32.5m/s 405.30MHz Type=RS41-SG Aux[] BK=Timed(082619h) RS41Tracker 1.17
EI6HKB-11U20101732022-12-06 01:02:2251.7817-10.48332222619547Clb=-37.9m/s 405.30MHz Type=RS41-SG Aux[] BK=Timed(082619h) RS41Tracker 1.17
EI6HKB-11U20101732022-12-06 01:02:0251.7827-10.48172241920346Clb=-41.0m/s 405.30MHz Type=RS41-SG Aux[] BK=Timed(082710h) RS41Tracker 1.17
EI6HKB-11U20101732022-12-06 01:01:4251.7831-10.4808231721200Clb=-44.4m/s 405.30MHz Type=RS41-SG Aux[] BK=Timed(082710h) RS41Tracker 1.17
EI6HKB-11U20101732022-12-06 01:01:2251.784-10.48022033922098Clb=-45.5m/s 405.30MHz Type=RS41-SG Aux[] BK=Timed(082710h) RS41Tracker 1.17
EI6HKB-11U20101732022-12-06 01:01:0251.7857-10.47991763022998Clb=-48.6m/s 405.30MHz Type=RS41-SG Aux[] BK=Timed(082801h) RS41Tracker 1.17
EI6HKB-11U20101732022-12-06 01:00:4251.7874-10.48031853723983Clb=-50.8m/s 405.30MHz Type=RS41-SG Aux[] BK=Timed(082801h) RS41Tracker 1.17
EI6HKB-11U20101732022-12-06 01:00:2251.7887-10.48131374325026Clb=-53.6m/s 405.30MHz Type=RS41-SG Aux[] BK=Timed(082852h) RS41Tracker 1.17
EI6HKB-11U20101732022-12-06 01:00:0251.7905-10.48331535026084Clb=-54.4m/s 405.30MHz Type=RS41-SG Aux[] BK=Timed(082852h) RS41Tracker 1.17
EI6HKB-11U20101732022-12-06 00:59:4251.7927-10.48571515227174Clb=-55.7m/s 405.30MHz Type=RS41-SG Aux[] BK=Timed(082852h) RS41Tracker 1.17
EI6HKB-11U20101732022-12-06 00:59:2251.7948-10.48781384828255Clb=-54.5m/s 405.30MHz Type=RS41-SG Aux[] BK=Timed(082943h) RS41Tracker 1.17
EI6HKB-11U20101732022-12-06 00:59:0251.797-10.48981434629390Clb=-60.0m/s 405.30MHz Type=RS41-SG Aux[] BK=Timed(082943h) RS41Tracker 1.17
EI6HKB-11U20101732022-12-06 00:58:4251.7986-10.49381216730663Clb=-60.6m/s 405.30MHz Type=RS41-SG Aux[] BK=Timed(083000h) RS41Tracker 1.17
EI6HKB-11U20101732022-12-06 00:58:2251.801-10.49871239131741Clb=-52.2m/s 405.30MHz Type=RS41-SG Aux[] BK=Timed(083000h) RS41Tracker 1.17
EI6HKB-11U20101732022-12-06 00:58:0251.8031-10.5061049132670Clb=-16.0m/s 405.30MHz Type=RS41-SG Aux[] BK=Timed(083000h) RS41Tracker 1.17
EI6HKB-11U20101732022-12-06 00:57:4251.8052-10.51331129432565Clb=7.2m/s 405.30MHz Type=RS41-SG Aux[] BK=Timed(083000h) RS41Tracker 1.17
EI6HKB-11U20101732022-12-06 00:57:2251.8074-10.52111110232427Clb=5.9m/s 405.30MHz Type=RS41-SG Aux[] BK=Timed(083000h) RS41Tracker 1.17
EI6HKB-11U20101732022-12-06 00:56:2051.8144-10.54031337832008Clb=7.0m/s 405.30MHz Type=RS41-SG Aux[] BK=Timed(083000h) RS41Tracker 1.17
EI6HKB-11U20101732022-12-06 00:56:0051.8168-10.5461239331880Clb=5.7m/s 405.30MHz Type=RS41-SG Aux[] BK=Timed(083000h) RS41Tracker 1.17
EI6HKB-11U20101732022-12-06 00:55:4051.8194-10.55181278931751Clb=6.4m/s 405.30MHz Type=RS41-SG Aux[] BK=Timed(083000h) RS41Tracker 1.17
EI6HKB-11U20101732022-12-06 00:55:2051.8217-10.55641267231623Clb=6.1m/s 405.30MHz Type=RS41-SG Aux[] BK=Timed(083000h) RS41Tracker 1.17
EI6HKB-11U20101732022-12-06 00:55:0051.824-10.56131277631490Clb=5.2m/s 405.30MHz Type=RS41-SG Aux[] BK=Timed(083000h) RS41Tracker 1.17
EI6HKB-11U20101732022-12-06 00:54:4051.8263-10.56571336931358Clb=6.7m/s 405.30MHz Type=RS41-SG Aux[] BK=Timed(083000h) RS41Tracker 1.17
EI6HKB-11U20101732022-12-06 00:54:2051.829-10.56941427631221Clb=6.1m/s 405.30MHz Type=RS41-SG Aux[] BK=Timed(083000h) RS41Tracker 1.17
EI6HKB-11U20101732022-12-06 00:54:0051.8316-10.57341336731090Clb=7.1m/s 405.30MHz Type=RS41-SG Aux[] BK=Timed(083000h) RS41Tracker 1.17
EI6HKB-11U20101732022-12-06 00:53:4051.8335-10.57791117230953Clb=5.7m/s 405.30MHz Type=RS41-SG Aux[] BK=Timed(083000h) RS41Tracker 1.17
EI6HKB-11U20101732022-12-06 00:53:2051.8351-10.58281197430818Clb=6.3m/s 405.30MHz Type=RS41-SG Aux[] BK=Timed(083000h) RS41Tracker 1.17
EI6HKB-11U20101732022-12-06 00:53:0051.8361-10.5877995630682Clb=7.5m/s 405.30MHz Type=RS41-SG Aux[] BK=Timed(083000h) RS41Tracker 1.17
EI6HKB-11U20101732022-12-06 00:52:4051.837-10.59151226530551Clb=6.8m/s 405.30MHz Type=RS41-SG Aux[] BK=Timed(083000h) RS41Tracker 1.17
EI6HKB-11U20101732022-12-06 00:52:2051.8385-10.59491204830421Clb=5.3m/s 405.30MHz Type=RS41-SG Aux[] BK=Timed(083000h) RS41Tracker 1.17
EI6HKB-11U20101732022-12-06 00:52:0051.8404-10.59821375630290Clb=4.9m/s 405.30MHz Type=RS41-SG Aux[] BK=Timed(083000h) RS41Tracker 1.17
EI6HKB-11U20101732022-12-06 00:51:4051.8419-10.60251077230163Clb=5.4m/s 405.30MHz Type=RS41-SG Aux[] BK=Timed(083000h) RS41Tracker 1.17
EI6HKB-11U20101732022-12-06 00:51:2051.8433-10.60671136330037Clb=6.7m/s 405.30MHz Type=RS41-SG Aux[] BK=Timed(083000h) RS41Tracker 1.17
EI6HKB-11U20101732022-12-06 00:51:0051.8445-10.61061174429914Clb=6.6m/s 405.30MHz Type=RS41-SG Aux[] BK=Timed(083000h) RS41Tracker 1.17
EI6HKB-11U20101732022-12-06 00:50:4051.8461-10.61381255429785Clb=6.3m/s 405.30MHz Type=RS41-SG Aux[] BK=Timed(083000h) RS41Tracker 1.17
EI6HKB-11U20101732022-12-06 00:50:2051.8476-10.6171383929660Clb=5.7m/s 405.30MHz Type=RS41-SG Aux[] BK=Timed(083000h) RS41Tracker 1.17
EI6HKB-11U20101732022-12-06 00:50:0051.8495-10.61911535429535Clb=7.2m/s 405.30MHz Type=RS41-SG Aux[] BK=Timed(083000h) RS41Tracker 1.17
EI6HKB-11U20101732022-12-06 00:49:4051.8519-10.62071575629410Clb=6.0m/s 405.30MHz Type=RS41-SG Aux[] BK=Timed(083000h) RS41Tracker 1.17
EI6HKB-11U20101732022-12-06 00:49:2051.8543-10.62151815429289Clb=6.2m/s 405.30MHz Type=RS41-SG Aux[] BK=Timed(083000h) RS41Tracker 1.17
EI6HKB-11U20101732022-12-06 00:49:0051.8574-10.62231658329161Clb=6.6m/s 405.30MHz Type=RS41-SG Aux[] BK=Timed(083000h) RS41Tracker 1.17
EI6HKB-11U20101732022-12-06 00:48:4051.8607-10.62411645929036Clb=7.0m/s 405.30MHz Type=RS41-SG Aux[] BK=Timed(083000h) RS41Tracker 1.17
EI6HKB-11U20101732022-12-06 00:48:2051.8633-10.62621525928907Clb=7.4m/s 405.30MHz Type=RS41-SG Aux[] BK=Timed(083000h) RS41Tracker 1.17
EI6HKB-11U20101732022-12-06 00:48:0051.8655-10.62851393728773Clb=6.2m/s 405.30MHz Type=RS41-SG Aux[] BK=Timed(083000h) RS41Tracker 1.17
EI6HKB-11U20101732022-12-06 00:47:4051.8677-10.63141316128634Clb=7.8m/s 405.30MHz Type=RS41-SG Aux[] BK=Timed(083000h) RS41Tracker 1.17
EI6HKB-11U20101732022-12-06 00:47:2051.8696-10.63421444428497Clb=6.2m/s 405.30MHz Type=RS41-SG Aux[] BK=Timed(083000h) RS41Tracker 1.17
EI6HKB-11U20101732022-12-06 00:47:0051.8711-10.63681394628358Clb=6.9m/s 405.30MHz Type=RS41-SG Aux[] BK=Timed(083000h) RS41Tracker 1.17
EI6HKB-11U20101732022-12-06 00:45:3851.8772-10.64531484827797Clb=6.5m/s 405.30MHz Type=RS41-SG Aux[] BK=Timed(083000h) RS41Tracker 1.17
EI6HKB-11U20101732022-12-06 00:43:4651.8905-10.65861357027070Clb=5.6m/s 405.30MHz Type=RS41-SG Aux[] BK=Timed(083000h) RS41Tracker 1.17
EI6HKB-11U20101732022-12-06 00:43:1651.8939-10.66331356326876Clb=6.3m/s 405.30MHz Type=RS41-SG Aux[] BK=Timed(083000h) RS41Tracker 1.17
EI6HKB-11U20101732022-12-06 00:42:0651.9015-10.67251494426396Clb=5.7m/s 405.30MHz Type=RS41-SG Aux[] BK=Timed(083000h) RS41Tracker 1.17
EI6HKB-11U20101732022-12-06 00:41:0251.9098-10.67881455225976Clb=7.4m/s 405.30MHz Type=RS41-SG Aux[] BK=Timed(083000h) RS41Tracker 1.17
EI6HKB-11U20101732022-12-06 00:40:4251.9119-10.68111435625852Clb=7.5m/s 405.30MHz Type=RS41-SG Aux[] BK=Timed(083000h) RS41Tracker 1.17
EI6HKB-11U20101732022-12-06 00:39:5051.9174-10.68621404325541Clb=6.0m/s 405.30MHz Type=RS41-SG Aux[] BK=Timed(083000h) RS41Tracker 1.17
EI6HKB-11U20101732022-12-06 00:39:0451.9212-10.69171335025287Clb=5.0m/s 405.30MHz Type=RS41-SG Aux[] BK=Timed(083000h) RS41Tracker 1.17
EI6HKB-11U20101732022-12-06 00:38:4051.9233-10.69491323725155Clb=7.2m/s 405.30MHz Type=RS41-SG Aux[] BK=Timed(083000h) RS41Tracker 1.17
EI6HKB-11U20101732022-12-06 00:38:2051.9245-10.69751334125044Clb=4.6m/s 405.30MHz Type=RS41-SG Aux[] BK=Timed(083000h) RS41Tracker 1.17
EI6HKB-11U20101732022-12-06 00:37:3051.9261-10.70158224749Clb=7.3m/s 405.30MHz Type=RS41-SG Aux[] BK=Timed(083000h) RS41Tracker 1.17
EI6HKB-11U20101732022-12-06 00:36:2851.9292-10.69862124124353Clb=6.9m/s 405.30MHz Type=RS41-SG Aux[] BK=Timed(083000h) RS41Tracker 1.17
EI6HKB-11U20101732022-12-06 00:35:4451.9338-10.69851792024079Clb=6.1m/s 405.30MHz Type=RS41-SG Aux[] BK=Timed(083000h) RS41Tracker 1.17
EI6HKB-11U20101732022-12-06 00:34:1651.9393-10.70131643123558Clb=7.0m/s 405.30MHz Type=RS41-SG Aux[] BK=Timed(083000h) RS41Tracker 1.17
EI6HKB-11U20101732022-12-06 00:31:1051.9517-10.7011832622442Clb=5.0m/s 405.30MHz Type=RS41-SG Aux[] BK=Timed(083000h) RS41Tracker 1.17
EI6HKB-11U20101732022-12-06 00:30:5051.9536-10.70061904822322Clb=6.9m/s 405.30MHz Type=RS41-SG Aux[] BK=Timed(083000h) RS41Tracker 1.17
EI6HKB-11U20101732022-12-06 00:29:2251.9605-10.69631952221813Clb=6.7m/s 405.30MHz Type=RS41-SG Aux[] BK=Timed(083000h) RS41Tracker 1.17
EI6HKB-11U20101732022-12-06 00:28:1651.9622-10.6965308421449Clb=3.7m/s 405.30MHz Type=RS41-SG Aux[] BK=Timed(083000h) RS41Tracker 1.17
EI6HKB-11U20101732022-12-06 00:27:5651.9624-10.69592411521339Clb=6.3m/s 405.30MHz Type=RS41-SG Aux[] BK=Timed(083000h) RS41Tracker 1.17
EI6HKB-11U20101732022-12-06 00:27:2851.9626-10.69422481721181Clb=5.1m/s 405.30MHz Type=RS41-SG Aux[] BK=Timed(083000h) RS41Tracker 1.17
EI6HKB-11U20101732022-12-06 00:27:0851.9628-10.69262552621070Clb=6.3m/s 405.30MHz Type=RS41-SG Aux[] BK=Timed(083000h) RS41Tracker 1.17
EI6HKB-11U20101732022-12-06 00:26:4851.9631-10.69112271920960Clb=6.4m/s 405.30MHz Type=RS41-SG Aux[] BK=Timed(083000h) RS41Tracker 1.17
EI6HKB-11U20101732022-12-06 00:26:2851.9635-10.69012451520850Clb=6.2m/s 405.30MHz Type=RS41-SG Aux[] BK=Timed(083000h) RS41Tracker 1.17
EI6HKB-11U20101732022-12-06 00:26:0851.964-10.68922101120742Clb=5.8m/s 405.30MHz Type=RS41-SG Aux[] BK=Timed(083000h) RS41Tracker 1.17
EI6HKB-11U20101732022-12-06 00:25:4851.9645-10.68851971320631Clb=6.5m/s 405.30MHz Type=RS41-SG Aux[] BK=Timed(083000h) RS41Tracker 1.17
EI6HKB-11U20101732022-12-06 00:25:2851.9649-10.6882421520518Clb=6.3m/s 405.30MHz Type=RS41-SG Aux[] BK=Timed(083000h) RS41Tracker 1.17
EI6HKB-11U20101732022-12-06 00:25:0851.9654-10.68732351920405Clb=6.0m/s 405.30MHz Type=RS41-SG Aux[] BK=Timed(083000h) RS41Tracker 1.17
EI6HKB-11U20101732022-12-06 00:24:4851.966-10.68582432420290Clb=5.9m/s 405.30MHz Type=RS41-SG Aux[] BK=Timed(083000h) RS41Tracker 1.17
EI6HKB-11U20101732022-12-06 00:24:2851.9671-10.68412194420177Clb=6.9m/s 405.30MHz Type=RS41-SG Aux[] BK=Timed(083000h) RS41Tracker 1.17
EI6HKB-11U20101732022-12-06 00:24:0851.9683-10.68252222820073Clb=5.1m/s 405.30MHz Type=RS41-SG Aux[] BK=Timed(083000h) RS41Tracker 1.17
EI6HKB-11U20101732022-12-06 00:23:4851.9699-10.68062013919960Clb=4.0m/s 405.30MHz Type=RS41-SG Aux[] BK=Timed(083000h) RS41Tracker 1.17
EI6HKB-11U20101732022-12-06 00:23:2851.9715-10.67952053719856Clb=3.6m/s 405.30MHz Type=RS41-SG Aux[] BK=Timed(083000h) RS41Tracker 1.17
EI6HKB-11U20101732022-12-06 00:23:0851.9728-10.67832212619752Clb=5.3m/s 405.30MHz Type=RS41-SG Aux[] BK=Timed(083000h) RS41Tracker 1.17
EI6HKB-11U20101732022-12-06 00:22:4851.9737-10.67672443119653Clb=3.7m/s 405.30MHz Type=RS41-SG Aux[] BK=Timed(083000h) RS41Tracker 1.17
EI6HKB-11U20101732022-12-06 00:22:2851.975-10.67492154119542Clb=6.1m/s 405.30MHz Type=RS41-SG Aux[] BK=Timed(083000h) RS41Tracker 1.17
EI6HKB-11U20101732022-12-06 00:20:4651.986-10.66432144118976Clb=5.4m/s 405.30MHz Type=RS41-SG Aux[] BK=Timed(083000h) RS41Tracker 1.17
EI6HKB-11U20101732022-12-06 00:20:2451.9876-10.66282212618851Clb=4.3m/s 405.30MHz Type=RS41-SG Aux[] BK=Timed(083000h) RS41Tracker 1.17
EI6HKB-11U20101732022-12-06 00:20:0451.9887-10.66181982818738Clb=5.9m/s 405.30MHz Type=RS41-SG Aux[] BK=Timed(083000h) RS41Tracker 1.17
EI6HKB-11U20101732022-12-06 00:19:4251.9897-10.6611841718621Clb=5.3m/s 405.30MHz Type=RS41-SG Aux[] BK=Timed(083000h) RS41Tracker 1.17
EI6HKB-11U20101732022-12-06 00:19:1651.9908-10.66012151718479Clb=5.6m/s 405.30MHz Type=RS41-SG Aux[] BK=Timed(083000h) RS41Tracker 1.17
EI6HKB-11U20101732022-12-06 00:17:3051.9956-10.65662052217926Clb=4.7m/s 405.30MHz Type=RS41-SG Aux[] BK=Timed(083000h) RS41Tracker 1.17
EI6HKB-11U20101732022-12-06 00:17:1051.9968-10.65532183317821Clb=4.7m/s 405.30MHz Type=RS41-SG Aux[] BK=Timed(083000h) RS41Tracker 1.17
EI6HKB-11U20101732022-12-06 00:16:1452.0008-10.65132062617543Clb=5.7m/s 405.30MHz Type=RS41-SG Aux[] BK=Timed(083000h) RS41Tracker 1.17
EI6HKB-11U20101732022-12-06 00:15:5452.0017-10.652222617449Clb=3.7m/s 405.30MHz Type=RS41-SG Aux[] BK=Timed(083000h) RS41Tracker 1.17
EI6HKB-11U20101732022-12-06 00:15:3452.0028-10.64792323117347Clb=5.3m/s 405.30MHz Type=RS41-SG Aux[] BK=Timed(083000h) RS41Tracker 1.17
EI6HKB-11U20101732022-12-06 00:15:1252.0035-10.64622302217231Clb=4.7m/s 405.30MHz Type=RS41-SG Aux[] BK=Timed(083000h) RS41Tracker 1.17
EI6HKB-11U20101732022-12-06 00:14:5252.0042-10.6448227917129Clb=5.1m/s 405.30MHz Type=RS41-SG Aux[] BK=Timed(083000h) RS41Tracker 1.17
EI6HKB-11U20101732022-12-06 00:14:0852.0056-10.6432841516906Clb=6.6m/s 405.30MHz Type=RS41-SG Aux[] BK=Timed(083000h) RS41Tracker 1.17
EI6HKB-11U20101732022-12-06 00:13:4852.0057-10.6421223716794Clb=5.7m/s 405.30MHz Type=RS41-SG Aux[] BK=Timed(083000h) RS41Tracker 1.17
EI6HKB-11U20101732022-12-06 00:13:2852.0057-10.64122621916692Clb=5.5m/s 405.30MHz Type=RS41-SG Aux[] BK=Timed(083000h) RS41Tracker 1.17
EI6HKB-11U20101732022-12-06 00:12:1052.0075-10.63312353716277Clb=6.2m/s 405.30MHz Type=RS41-SG Aux[] BK=Timed(083000h) RS41Tracker 1.17
EI6HKB-11U20101732022-12-06 00:08:1852.0139-10.6172382815151Clb=4.4m/s 405.30MHz Type=RS41-SG Aux[] BK=Timed(083000h) RS41Tracker 1.17
EI6HKB-11U20101732022-12-06 00:07:5852.0144-10.61542312415049Clb=5.1m/s 405.30MHz Type=RS41-SG Aux[] BK=Timed(083000h) RS41Tracker 1.17
EI6HKB-11U20101732022-12-06 00:07:3452.0153-10.61412092014914Clb=6.2m/s 405.30MHz Type=RS41-SG Aux[] BK=Timed(083000h) RS41Tracker 1.17
EI6HKB-11U20101732022-12-06 00:07:1452.0161-10.61342291314792Clb=5.6m/s 405.30MHz Type=RS41-SG Aux[] BK=Timed(083000h) RS41Tracker 1.17
EI6HKB-11U20101732022-12-06 00:06:5452.0166-10.61282051514687Clb=4.8m/s 405.30MHz Type=RS41-SG Aux[] BK=Timed(083000h) RS41Tracker 1.17
EI6HKB-11U20101732022-12-06 00:06:3452.0173-10.61172201714589Clb=3.8m/s 405.30MHz Type=RS41-SG Aux[] BK=Timed(083000h) RS41Tracker 1.17
EI6HKB-11U20101732022-12-06 00:06:1452.018-10.61091911714494Clb=5.0m/s 405.30MHz Type=RS41-SG Aux[] BK=Timed(083000h) RS41Tracker 1.17
EI6HKB-11U20101732022-12-06 00:05:5452.0189-10.61071591914391Clb=6.4m/s 405.30MHz Type=RS41-SG Aux[] BK=Timed(083000h) RS41Tracker 1.17
EI6HKB-11U20101732022-12-06 00:01:2652.0156-10.60223091713043Clb=5.9m/s 405.30MHz Type=RS41-SG Aux[] BK=Timed(083000h) RS41Tracker 1.17
EI6HKB-11U20101732022-12-05 23:59:2652.0122-10.59353091912461Clb=4.4m/s 405.30MHz Type=RS41-SG Aux[] BK=Timed(083000h) RS41Tracker 1.17
EI6HKB-11U20101732022-12-05 23:59:0652.0119-10.59222982612352Clb=5.1m/s 405.30MHz Type=RS41-SG Aux[] BK=Timed(083000h) RS41Tracker 1.17
EI6HKB-11U20101732022-12-05 23:58:4652.0112-10.59153532612235Clb=5.8m/s 405.30MHz Type=RS41-SG Aux[] BK=Timed(083000h) RS41Tracker 1.17
EI6HKB-11U20101732022-12-05 23:58:2652.0103-10.59113331312144Clb=5.5m/s 405.30MHz Type=RS41-SG Aux[] BK=Timed(083000h) RS41Tracker 1.17
EI6HKB-11U20101732022-12-05 23:58:0652.0099-10.59032771312050Clb=5.1m/s 405.30MHz Type=RS41-SG Aux[] BK=Timed(083000h) RS41Tracker 1.17
EI6HKB-11U20101732022-12-05 23:57:4652.0101-10.58922421111946Clb=4.7m/s 405.30MHz Type=RS41-SG Aux[] BK=Timed(083000h) RS41Tracker 1.17
EI6HKB-11U20101732022-12-05 23:57:2652.01-10.5882279911846Clb=4.8m/s 405.30MHz Type=RS41-SG Aux[] BK=Timed(083000h) RS41Tracker 1.17
EI6HKB-11U20101732022-12-05 23:57:0652.0098-10.58742401911754Clb=4.9m/s 405.30MHz Type=RS41-SG Aux[] BK=Timed(083000h) RS41Tracker 1.17
EI6HKB-11U20101732022-12-05 23:56:4452.0088-10.58623252011624Clb=7.3m/s 405.30MHz Type=RS41-SG Aux[] BK=Timed(083000h) RS41Tracker 1.17
EI6HKB-11U20101732022-12-05 23:56:2252.0079-10.58513142011495Clb=4.3m/s 405.30MHz Type=RS41-SG Aux[] BK=Timed(083000h) RS41Tracker 1.17
EI6HKB-11U20101732022-12-05 23:56:0252.0075-10.584431111387Clb=5.1m/s 405.30MHz Type=RS41-SG Aux[] BK=Timed(083000h) RS41Tracker 1.17
EI6HKB-11U20101732022-12-05 23:55:4252.0069-10.58392821511283Clb=5.1m/s 405.30MHz Type=RS41-SG Aux[] BK=Timed(083000h) RS41Tracker 1.17
EI6HKB-11U20101732022-12-05 23:55:2252.0062-10.58223112611177Clb=4.2m/s 405.30MHz Type=RS41-SG Aux[] BK=Timed(083000h) RS41Tracker 1.17
EI6HKB-11U20101732022-12-05 23:53:0852.0019-10.573093510486Clb=4.1m/s 405.30MHz Type=RS41-SG Aux[] BK=Timed(083000h) RS41Tracker 1.17
EI6HKB-11U20101732022-12-05 23:52:0451.999-10.56372853110145Clb=4.9m/s 405.30MHz Type=RS41-SG Aux[] BK=Timed(083000h) RS41Tracker 1.17
EI6HKB-11U20101732022-12-05 23:51:3451.9979-10.56295419982Clb=5.0m/s 405.30MHz Type=RS41-SG Aux[] BK=Timed(083000h) RS41Tracker 1.17
EI6HKB-11U20101732022-12-05 23:51:1051.9966-10.5573304399855Clb=6.6m/s 405.30MHz Type=RS41-SG Aux[] BK=Timed(083000h) RS41Tracker 1.17
EI6HKB-11U20101732022-12-05 23:49:4851.9928-10.5474297339402Clb=7.4m/s 405.30MHz Type=RS41-SG Aux[] BK=Timed(083000h) RS41Tracker 1.17
EI6HKB-11U20101732022-12-05 23:49:2851.9917-10.5445311319292Clb=4.2m/s 405.30MHz Type=RS41-SG Aux[] BK=Timed(083000h) RS41Tracker 1.17
EI6HKB-11U20101732022-12-05 23:49:0851.9906-10.5415296399185Clb=4.4m/s 405.30MHz Type=RS41-SG Aux[] BK=Timed(083000h) RS41Tracker 1.17
EI6HKB-11U20101732022-12-05 23:48:3251.9893-10.535280448988Clb=7.3m/s 405.30MHz Type=RS41-SG Aux[] BK=Timed(083000h) RS41Tracker 1.17
EI6HKB-11U20101732022-12-05 23:47:5651.9887-10.5277271548805Clb=4.1m/s 405.30MHz Type=RS41-SG Aux[] BK=Timed(083000h) RS41Tracker 1.17
EI6HKB-11U20101732022-12-05 23:47:3651.9884-10.5241298418698Clb=3.8m/s 405.30MHz Type=RS41-SG Aux[] BK=Timed(083000h) RS41Tracker 1.17
EI6HKB-11U20101732022-12-05 23:45:4451.9842-10.5039298548152Clb=3.4m/s 405.30MHz Type=RS41-SG Aux[] BK=Timed(083000h) RS41Tracker 1.17
EI6HKB-11U20101732022-12-05 23:45:2451.9828-10.5004289528039Clb=5.6m/s 405.30MHz Type=RS41-SG Aux[] BK=Timed(083000h) RS41Tracker 1.17
EI6HKB-11U20101732022-12-05 23:45:0451.9814-10.4971309507928Clb=4.8m/s 405.30MHz Type=RS41-SG Aux[] BK=Timed(083000h) RS41Tracker 1.17
EI6HKB-11U20101732022-12-05 23:44:4451.9806-10.4937274377818Clb=8.6m/s 405.30MHz Type=RS41-SG Aux[] BK=Timed(083000h) RS41Tracker 1.17
EI6HKB-11U20101732022-12-05 23:44:2451.9796-10.4903292577684Clb=3.4m/s 405.30MHz Type=RS41-SG Aux[] BK=Timed(083000h) RS41Tracker 1.17
EI6HKB-11U20101732022-12-05 23:44:0251.9788-10.4864278507558Clb=5.4m/s 405.30MHz Type=RS41-SG Aux[] BK=Timed(083000h) RS41Tracker 1.17
EI6HKB-11U20101732022-12-05 23:43:4251.9783-10.4826295417441Clb=5.9m/s 405.30MHz Type=RS41-SG Aux[] BK=Timed(083000h) RS41Tracker 1.17
EI6HKB-11U20101732022-12-05 23:43:2251.9774-10.4801310487326Clb=6.9m/s 405.30MHz Type=RS41-SG Aux[] BK=Timed(083000h) RS41Tracker 1.17
EI6HKB-11U20101732022-12-05 23:43:0251.9767-10.4766270397194Clb=6.9m/s 405.30MHz Type=RS41-SG Aux[] BK=Timed(083000h) RS41Tracker 1.17
EI6HKB-11U20101732022-12-05 23:42:4251.9759-10.4734299527084Clb=5.4m/s 405.30MHz Type=RS41-SG Aux[] BK=Timed(083000h) RS41Tracker 1.17
EI6HKB-11U20101732022-12-05 23:42:2251.9751-10.47278506970Clb=5.2m/s 405.30MHz Type=RS41-SG Aux[] BK=Timed(083000h) RS41Tracker 1.17
EI6HKB-11U20101732022-12-05 23:42:0251.9747-10.4662293546859Clb=5.2m/s 405.30MHz Type=RS41-SG Aux[] BK=Timed(083000h) RS41Tracker 1.17
EI6HKB-11U20101732022-12-05 23:41:4251.9742-10.4622296576741Clb=5.5m/s 405.30MHz Type=RS41-SG Aux[] BK=Timed(083000h) RS41Tracker 1.17
EI6HKB-11U20101732022-12-05 23:41:2251.9734-10.4589298376630Clb=6.4m/s 405.30MHz Type=RS41-SG Aux[] BK=Timed(083000h) RS41Tracker 1.17
EI6HKB-11U20101732022-12-05 23:41:0251.9728-10.4554271376507Clb=5.7m/s 405.30MHz Type=RS41-SG Aux[] BK=Timed(083000h) RS41Tracker 1.17
EI6HKB-11U20101732022-12-05 23:40:4251.9724-10.4518292566398Clb=4.7m/s 405.30MHz Type=RS41-SG Aux[] BK=Timed(083000h) RS41Tracker 1.17
EI6HKB-11U20101732022-12-05 23:40:2251.9718-10.448298506290Clb=4.7m/s 405.30MHz Type=RS41-SG Aux[] BK=Timed(083000h) RS41Tracker 1.17
EI6HKB-11U20101732022-12-05 23:40:0251.9711-10.4447299376163Clb=6.4m/s 405.30MHz Type=RS41-SG Aux[] BK=Timed(083000h) RS41Tracker 1.17
EI6HKB-11U20101732022-12-05 23:39:4251.9704-10.4415281396050Clb=4.6m/s 405.30MHz Type=RS41-SG Aux[] BK=Timed(083000h) RS41Tracker 1.17
EI6HKB-11U20101732022-12-05 23:39:2251.9698-10.4375281675921Clb=4.9m/s 405.30MHz Type=RS41-SG Aux[] BK=Timed(083000h) RS41Tracker 1.17
EI6HKB-11U20101732022-12-05 23:39:0251.9689-10.4333290635813Clb=5.4m/s 405.30MHz Type=RS41-SG Aux[] BK=Timed(083000h) RS41Tracker 1.17
EI6HKB-11U20101732022-12-05 23:38:4251.9682-10.4288279635706Clb=5.7m/s 405.30MHz Type=RS41-SG Aux[] BK=Timed(083000h) RS41Tracker 1.17
EI6HKB-11U20101732022-12-05 23:38:2251.9679-10.4242264655594Clb=4.0m/s 405.30MHz Type=RS41-SG Aux[] BK=Timed(083000h) RS41Tracker 1.17
EI6HKB-11U20101732022-12-05 23:37:5651.9676-10.4181286575467Clb=6.1m/s 405.30MHz Type=RS41-SG Aux[] BK=Timed(083000h) RS41Tracker 1.17
EI6HKB-11U20101732022-12-05 23:37:3651.9673-10.4137288505368Clb=5.2m/s 405.30MHz Type=RS41-SG Aux[] BK=Timed(083000h) RS41Tracker 1.17
EI6HKB-11U20101732022-12-05 23:37:1651.9672-10.4089277565272Clb=6.0m/s 405.30MHz Type=RS41-SG Aux[] BK=Timed(083000h) RS41Tracker 1.17
EI6HKB-11U20101732022-12-05 23:36:5651.967-10.4048262465171Clb=3.9m/s 405.30MHz Type=RS41-SG Aux[] BK=Timed(083000h) RS41Tracker 1.17
EI6HKB-11U20101732022-12-05 23:36:3651.9668-10.4006285525080Clb=4.8m/s 405.30MHz Type=RS41-SG Aux[] BK=Timed(083000h) RS41Tracker 1.17
EI6HKB-11U20101732022-12-05 23:36:1651.966-10.3963291614986Clb=3.7m/s 405.30MHz Type=RS41-SG Aux[] BK=Timed(083000h) RS41Tracker 1.17
EI6HKB-11U20101732022-12-05 23:35:5651.9651-10.3923284374893Clb=4.9m/s 405.30MHz Type=RS41-SG Aux[] BK=Timed(083000h) RS41Tracker 1.17
EI6HKB-11U20101732022-12-05 23:35:3651.9643-10.3885277434806Clb=5.7m/s 405.30MHz Type=RS41-SG Aux[] BK=Timed(083000h) RS41Tracker 1.17
EI6HKB-11U20101732022-12-05 23:35:1651.9635-10.3843276564713Clb=3.7m/s 405.30MHz Type=RS41-SG Aux[] BK=Timed(083000h) RS41Tracker 1.17
EI6HKB-11U20101732022-12-05 23:30:3451.9543-10.3391279283320Clb=7.4m/s 405.30MHz Type=RS41-SG Aux[] BK=Timed(083000h) RS41Tracker 1.17
EI6HKB-11U20101732022-12-05 23:30:1451.9542-10.3363300433207Clb=4.9m/s 405.30MHz Type=RS41-SG Aux[] BK=Timed(083000h) RS41Tracker 1.17
EI6HKB-11U20101732022-12-05 23:29:3351.9529-10.3317278282989Clb=4.3m/s 405.30MHz Type=RS41-SG Aux[] BK=Timed(083000h) RS41Tracker 1.17
EI6HKB-11U20101732022-12-05 23:29:1351.9522-10.3287284312892Clb=4.8m/s 405.30MHz Type=RS41-SG Aux[] BK=Timed(083000h) RS41Tracker 1.17
EI6HKB-11U20101732022-12-05 23:28:5351.9518-10.3262270352768Clb=4.6m/s 405.30MHz Type=RS41-SG Aux[] BK=Timed(083000h) RS41Tracker 1.17
EI6HKB-11U20101732022-12-05 23:28:3151.9512-10.3234284332650Clb=7.7m/s 405.30MHz Type=RS41-SG Aux[] BK=Timed(083000h) RS41Tracker 1.17
EI6HKB-11U20101732022-12-05 23:28:1151.9507-10.3203286482541Clb=4.1m/s 405.30MHz Type=RS41-SG Aux[] BK=Timed(083000h) RS41Tracker 1.17
EI6HKB-11U20101732022-12-05 23:27:5151.9501-10.3175294442445Clb=5.6m/s 405.30MHz Type=RS41-SG Aux[] BK=Timed(083000h) RS41Tracker 1.17
EI6HKB-11U20101732022-12-05 23:27:2951.9492-10.3141299502330Clb=5.4m/s 405.30MHz Type=RS41-SG Aux[] BK=Timed(083000h) RS41Tracker 1.17
EI6HKB-11U20101732022-12-05 23:27:0951.9485-10.3111276432222Clb=4.2m/s 405.30MHz Type=RS41-SG Aux[] BK=Timed(083000h) RS41Tracker 1.17
EI6HKB-11U20101732022-12-05 23:26:4951.9479-10.3078295432122Clb=5.3m/s 405.30MHz Type=RS41-SG Aux[] BK=Timed(083000h) RS41Tracker 1.17
EI6HKB-11U20101732022-12-05 23:26:2951.9475-10.3045274482020Clb=5.1m/s 405.30MHz Type=RS41-SG Aux[] BK=Timed(083000h) RS41Tracker 1.17
EI6HKB-11U20101732022-12-05 23:26:0951.947-10.3012283351914Clb=6.2m/s 405.30MHz Type=RS41-SG Aux[] BK=Timed(083000h) RS41Tracker 1.17